Time;durP1;ratioP1;P1;durP2;ratioP2;P2;SDS_P1;SDS_P2;PMS_P1;PMS_P2;Temp;Humidity;BMP_temperature;BMP_pressure;BME280_temperature;BME280_humidity;BME280_pressure;Samples;Min_cycle;Max_cycle;Signal;HPM_P1;HPM_P2
2022/04/06 00:00:08;;;;;;;6.20;3.97;;;7.80;99.90;;;;;;5075840;28;20235;-67
2022/04/06 00:02:39;;;;;;;9.37;3.80;;;7.80;99.90;;;;;;5077603;28;20225;-67
2022/04/06 00:05:06;;;;;;;7.63;3.03;;;7.80;99.90;;;;;;5081938;28;20507;-68
2022/04/06 00:07:32;;;;;;;5.50;3.23;;;7.80;99.90;;;;;;5084703;28;20423;-67
2022/04/06 00:09:57;;;;;;;9.83;4.77;;;7.80;99.90;;;;;;5072950;28;20429;-67
2022/04/06 00:12:23;;;;;;;8.20;4.03;;;7.80;99.90;;;;;;5069529;28;20617;-65
2022/04/06 00:14:48;;;;;;;5.50;3.60;;;7.80;99.90;;;;;;5071556;28;20204;-68
2022/04/06 00:17:14;;;;;;;5.07;2.80;;;7.80;99.90;;;;;;5080060;28;20192;-67
2022/04/06 00:19:40;;;;;;;8.63;3.70;;;7.80;99.90;;;;;;5084509;28;20328;-67
2022/04/06 00:22:06;;;;;;;8.53;3.80;;;7.80;99.90;;;;;;5078290;28;20300;-67
2022/04/06 00:24:32;;;;;;;6.80;3.93;;;7.80;99.90;;;;;;5080775;28;20592;-66
2022/04/06 00:26:58;;;;;;;4.67;3.13;;;7.80;99.90;;;;;;5082425;28;20496;-67
2022/04/06 00:29:24;;;;;;;7.53;3.63;;;7.90;99.90;;;;;;5074873;28;20449;-67
2022/04/06 00:31:49;;;;;;;4.20;2.73;;;7.80;99.90;;;;;;5075999;28;21020;-68
2022/04/06 00:34:15;;;;;;;4.70;3.10;;;7.80;99.90;;;;;;5079951;28;20208;-67
2022/04/06 00:36:41;;;;;;;7.13;4.00;;;7.80;99.90;;;;;;5082124;28;20201;-67
2022/04/06 00:39:07;;;;;;;9.57;3.70;;;7.80;99.90;;;;;;5074075;28;20188;-66
2022/04/06 00:41:32;;;;;;;5.40;3.23;;;7.80;99.90;;;;;;5073172;28;20224;-67
2022/04/06 00:44:16;;;;;;;9.10;3.13;;;7.90;99.90;;;;;;5078037;28;20736;-66
2022/04/06 00:46:44;;;;;;;5.63;2.87;;;7.90;99.90;;;;;;5078388;28;20219;-67
2022/04/06 00:49:14;;;;;;;5.23;2.70;;;7.90;99.90;;;;;;5077462;28;20479;-67
2022/04/06 00:51:45;;;;;;;9.43;3.73;;;7.80;99.90;;;;;;5079228;28;20453;-67
2022/04/06 00:54:16;;;;;;;5.40;3.03;;;7.90;99.90;;;;;;5064027;28;20446;-67
2022/04/06 00:56:43;;;;;;;5.70;2.80;;;7.90;99.90;;;;;;5076195;28;20458;-67
2022/04/06 00:59:10;;;;;;;6.57;3.03;;;8.00;99.90;;;;;;5071896;28;20473;-65
2022/04/06 01:01:36;;;;;;;14.60;3.00;;;7.90;99.90;;;;;;5078432;28;20996;-67
2022/04/06 01:04:03;;;;;;;6.03;2.90;;;7.90;99.90;;;;;;5082683;28;20466;-67
2022/04/06 01:06:29;;;;;;;5.10;3.10;;;7.90;99.90;;;;;;5086052;28;20939;-67
2022/04/06 01:08:55;;;;;;;2.93;2.23;;;7.90;99.90;;;;;;5074284;28;20477;-67
2022/04/06 01:11:21;;;;;;;7.13;2.97;;;7.80;99.90;;;;;;5075261;28;20878;-67
2022/04/06 01:13:47;;;;;;;5.77;3.07;;;7.80;99.90;;;;;;5075862;28;20965;-67
2022/04/06 01:16:14;;;;;;;5.23;2.60;;;7.80;99.90;;;;;;5082908;28;21023;-66
2022/04/06 01:18:41;;;;;;;6.57;3.07;;;7.80;99.90;;;;;;5081658;28;20486;-67
2022/04/06 01:21:07;;;;;;;4.40;2.20;;;7.80;99.90;;;;;;5066348;28;20471;-67
2022/04/06 01:23:33;;;;;;;4.57;2.87;;;7.80;99.90;;;;;;5067655;28;20427;-67
2022/04/06 01:25:58;;;;;;;7.23;3.60;;;7.90;99.90;;;;;;5076783;28;20524;-66
2022/04/06 01:28:26;;;;;;;5.30;2.90;;;7.80;99.90;;;;;;5068275;28;20226;-66
2022/04/06 01:30:52;;;;;;;5.77;2.80;;;7.90;99.90;;;;;;5071220;28;20833;-66
2022/04/06 01:33:17;;;;;;;5.50;2.80;;;7.80;99.90;;;;;;5071544;28;20426;-67
2022/04/06 01:35:43;;;;;;;4.67;2.83;;;7.90;99.90;;;;;;5078443;28;20314;-67
2022/04/06 01:38:09;;;;;;;6.90;3.47;;;7.90;99.90;;;;;;5074463;28;20501;-66
2022/04/06 01:40:35;;;;;;;6.63;3.17;;;7.90;99.90;;;;;;5074218;28;20203;-65
2022/04/06 01:43:01;;;;;;;5.17;3.00;;;7.80;99.90;;;;;;5063627;28;20459;-66
2022/04/06 01:45:27;;;;;;;3.60;2.40;;;7.90;99.90;;;;;;5084026;28;20496;-65
2022/04/06 01:47:53;;;;;;;6.53;2.90;;;7.80;99.90;;;;;;5085591;28;20192;-66
2022/04/06 01:53:03;;;;;;;7.00;3.10;;;7.90;99.90;;;;;;5080777;28;20246;-67
2022/04/06 01:55:29;;;;;;;4.00;2.50;;;7.80;99.90;;;;;;5073713;28;20875;-67
2022/04/06 01:57:56;;;;;;;8.33;3.50;;;7.90;99.90;;;;;;5077926;28;20422;-66
2022/04/06 02:00:22;;;;;;;6.90;3.73;;;7.80;99.90;;;;;;5077406;28;20419;-67
2022/04/06 02:02:51;;;;;;;6.50;3.50;;;7.80;99.90;;;;;;5069860;28;20454;-66
2022/04/06 02:05:18;;;;;;;9.17;3.83;;;7.80;99.90;;;;;;5079434;28;20993;-67
2022/04/06 02:07:46;;;;;;;8.40;3.77;;;7.80;99.90;;;;;;5073497;28;20439;-67
2022/04/06 02:10:13;;;;;;;8.40;4.50;;;7.80;99.90;;;;;;5071527;28;20421;-67
2022/04/06 02:12:40;;;;;;;9.57;3.70;;;7.80;99.90;;;;;;5068769;28;20446;-66
2022/04/06 02:15:09;;;;;;;4.27;2.90;;;7.80;99.90;;;;;;5074929;28;20926;-67
2022/04/06 02:17:35;;;;;;;4.93;3.63;;;7.80;99.90;;;;;;5075145;28;20545;-66
2022/04/06 02:20:00;;;;;;;10.60;4.33;;;7.80;99.90;;;;;;5070126;28;20538;-67
2022/04/06 02:22:26;;;;;;;6.37;3.50;;;7.80;99.90;;;;;;5076530;28;20241;-66
2022/04/06 02:24:52;;;;;;;8.57;4.50;;;7.90;99.90;;;;;;5077514;28;20195;-67
2022/04/06 02:27:18;;;;;;;15.60;4.57;;;7.90;99.90;;;;;;5078590;28;20620;-67
2022/04/06 02:29:44;;;;;;;8.20;4.50;;;7.80;99.90;;;;;;5072373;28;20730;-67
2022/04/06 02:32:10;;;;;;;7.47;3.57;;;7.80;99.90;;;;;;5079344;28;20207;-66
2022/04/06 02:34:36;;;;;;;9.73;4.00;;;7.90;99.90;;;;;;5082441;28;20438;-66
2022/04/06 02:37:01;;;;;;;7.13;3.50;;;7.80;99.90;;;;;;5077410;28;20295;-67
2022/04/06 02:39:27;;;;;;;8.53;4.40;;;7.80;99.90;;;;;;5069614;28;20451;-66
2022/04/06 02:41:53;;;;;;;6.50;4.27;;;7.80;99.90;;;;;;5069737;28;20671;-66
2022/04/06 02:44:19;;;;;;;8.43;4.67;;;7.80;99.90;;;;;;5074659;28;20196;-67
2022/04/06 02:46:47;;;;;;;7.57;4.23;;;7.90;99.90;;;;;;5076365;28;20236;-67
2022/04/06 02:49:14;;;;;;;8.87;4.33;;;7.80;99.90;;;;;;5058845;28;20835;-67
2022/04/06 02:51:40;;;;;;;7.53;4.67;;;7.80;99.90;;;;;;5064618;28;20776;-67
2022/04/06 02:54:06;;;;;;;7.07;4.27;;;7.80;99.90;;;;;;5075323;28;21028;-67
2022/04/06 02:56:32;;;;;;;8.43;3.83;;;7.80;99.90;;;;;;5074433;28;20419;-67
2022/04/06 02:58:57;;;;;;;7.57;4.10;;;7.80;99.90;;;;;;5065943;28;20505;-68
2022/04/06 03:01:23;;;;;;;9.50;4.50;;;7.90;99.90;;;;;;5072175;28;20909;-67
2022/04/06 03:03:49;;;;;;;6.53;4.13;;;7.90;99.90;;;;;;5079603;28;20192;-66
2022/04/06 03:06:15;;;;;;;6.87;4.43;;;7.90;99.90;;;;;;5077137;28;20419;-67
2022/04/06 03:08:40;;;;;;;7.33;3.97;;;7.90;99.90;;;;;;5067063;28;20216;-67
2022/04/06 03:11:06;;;;;;;8.13;3.80;;;7.90;99.90;;;;;;5067172;28;20475;-68
2022/04/06 03:13:32;;;;;;;8.40;3.83;;;7.90;99.90;;;;;;5081319;28;20184;-66
2022/04/06 03:15:58;;;;;;;10.87;5.20;;;7.90;99.90;;;;;;5071311;28;20200;-67
2022/04/06 03:18:24;;;;;;;9.87;4.90;;;7.80;99.90;;;;;;5072815;28;20207;-67
2022/04/06 03:20:49;;;;;;;7.03;4.13;;;7.80;99.90;;;;;;5071983;28;20438;-67
2022/04/06 03:23:15;;;;;;;9.27;3.70;;;7.80;99.90;;;;;;5079411;28;20181;-66
2022/04/06 03:25:42;;;;;;;9.30;3.90;;;7.90;99.90;;;;;;5075579;28;20229;-67
2022/04/06 03:28:08;;;;;;;7.63;4.27;;;7.90;99.90;;;;;;5070424;28;20177;-67
2022/04/06 03:30:33;;;;;;;7.47;4.30;;;7.90;99.90;;;;;;5072735;28;20940;-66
2022/04/06 03:32:59;;;;;;;7.80;4.20;;;7.90;99.90;;;;;;5087837;28;20204;-67
2022/04/06 03:35:25;;;;;;;8.53;4.30;;;7.90;99.90;;;;;;5081986;28;20188;-67
2022/04/06 03:37:51;;;;;;;12.60;5.50;;;7.80;99.90;;;;;;5063045;28;20184;-66
2022/04/06 03:40:17;;;;;;;8.10;4.43;;;7.90;99.90;;;;;;5081197;28;20267;-68
2022/04/06 03:42:43;;;;;;;7.03;4.40;;;7.80;99.90;;;;;;5080146;28;20447;-66
2022/04/06 03:45:09;;;;;;;6.93;3.70;;;7.80;99.90;;;;;;5084470;28;20215;-67
2022/04/06 03:47:36;;;;;;;8.30;5.00;;;7.80;99.90;;;;;;5085051;28;20178;-66
2022/04/06 03:50:06;;;;;;;7.97;4.40;;;7.80;99.90;;;;;;5077056;28;20569;-67
2022/04/06 03:52:32;;;;;;;7.87;4.50;;;7.80;99.90;;;;;;5079712;28;20485;-67
2022/04/06 03:54:58;;;;;;;7.73;4.40;;;7.90;99.90;;;;;;5085731;28;20448;-67
2022/04/06 03:57:25;;;;;;;8.87;4.53;;;7.80;99.90;;;;;;5067586;28;20185;-67
2022/04/06 03:59:51;;;;;;;8.20;4.70;;;7.80;99.90;;;;;;5066705;28;20411;-66
2022/04/06 04:02:17;;;;;;;11.53;4.17;;;7.80;99.90;;;;;;5072224;28;20445;-67
2022/04/06 04:04:43;;;;;;;7.80;4.90;;;7.90;99.90;;;;;;5079836;28;20776;-67
2022/04/06 04:07:09;;;;;;;8.53;4.87;;;7.80;99.90;;;;;;5076165;28;20207;-66
2022/04/06 04:09:35;;;;;;;8.60;4.33;;;7.80;99.90;;;;;;5070555;28;20181;-68
2022/04/06 04:12:02;;;;;;;7.83;4.90;;;7.80;99.90;;;;;;5075019;28;20261;-67
2022/04/06 04:14:31;;;;;;;8.30;5.23;;;7.80;99.90;;;;;;5080633;28;20430;-66
2022/04/06 04:17:01;;;;;;;6.33;3.83;;;7.80;99.90;;;;;;5077174;28;20429;-68
2022/04/06 04:19:27;;;;;;;7.90;4.63;;;7.80;99.90;;;;;;5071674;28;20984;-67
2022/04/06 04:21:53;;;;;;;10.23;4.67;;;7.80;99.90;;;;;;5077897;28;20584;-65
2022/04/06 04:24:19;;;;;;;6.37;4.20;;;7.80;99.90;;;;;;5068795;28;20516;-66
2022/04/06 04:26:45;;;;;;;9.67;5.30;;;7.80;99.90;;;;;;5076923;28;20541;-67
2022/04/06 04:29:10;;;;;;;8.40;4.57;;;7.80;99.90;;;;;;5075556;28;20717;-67
2022/04/06 04:31:36;;;;;;;10.50;4.00;;;7.80;99.90;;;;;;5078340;28;20200;-66
2022/04/06 04:34:02;;;;;;;8.57;4.27;;;7.80;99.90;;;;;;5078587;28;20192;-67
2022/04/06 04:36:28;;;;;;;12.20;5.03;;;7.80;99.90;;;;;;5070131;28;20203;-67
2022/04/06 04:38:54;;;;;;;7.10;4.53;;;7.80;99.90;;;;;;5068352;28;20262;-67
2022/04/06 04:41:20;;;;;;;7.07;4.53;;;7.80;99.90;;;;;;5065426;28;21114;-67
2022/04/06 04:43:46;;;;;;;6.20;4.00;;;7.80;99.90;;;;;;5078923;28;20418;-67
2022/04/06 04:46:12;;;;;;;5.70;3.47;;;7.70;99.90;;;;;;5082802;28;20623;-67
2022/04/06 04:48:37;;;;;;;8.40;4.90;;;7.80;99.90;;;;;;5085265;28;20182;-67
2022/04/06 04:51:03;;;;;;;8.57;3.83;;;7.80;99.90;;;;;;5075986;28;20184;-67
2022/04/06 04:53:30;;;;;;;7.60;4.33;;;7.80;99.90;;;;;;5083823;28;20292;-67
2022/04/06 04:55:56;;;;;;;11.23;5.20;;;7.80;99.90;;;;;;5086465;28;20479;-68
2022/04/06 04:58:22;;;;;;;9.13;4.77;;;7.80;99.90;;;;;;5085580;28;20441;-65
2022/04/06 05:00:48;;;;;;;8.40;4.23;;;7.70;99.90;;;;;;5085050;28;20422;-67
2022/04/06 05:03:13;;;;;;;6.83;3.70;;;7.70;99.90;;;;;;5080291;28;20549;-66
2022/04/06 05:05:42;;;;;;;5.90;3.60;;;7.80;99.90;;;;;;5077163;28;20228;-67
2022/04/06 05:08:08;;;;;;;6.60;3.83;;;7.80;99.90;;;;;;5068266;28;20188;-66
2022/04/06 05:10:33;;;;;;;9.20;3.90;;;7.80;99.90;;;;;;5071214;28;20921;-66
2022/04/06 05:12:59;;;;;;;11.97;4.67;;;7.80;99.90;;;;;;5075974;28;20461;-67
2022/04/06 05:15:25;;;;;;;8.13;4.63;;;7.80;99.90;;;;;;5086014;28;20189;-67
2022/04/06 05:17:51;;;;;;;6.40;3.97;;;7.80;99.90;;;;;;5075854;28;20223;-67
2022/04/06 05:20:17;;;;;;;8.87;5.50;;;7.80;99.90;;;;;;5078951;28;20887;-67
2022/04/06 05:22:43;;;;;;;6.93;3.43;;;7.80;99.90;;;;;;5075021;28;20538;-67
2022/04/06 05:25:09;;;;;;;6.87;3.83;;;7.90;99.90;;;;;;5077131;28;20541;-67
2022/04/06 05:27:44;;;;;;;6.13;4.00;;;7.80;99.90;;;;;;5078674;28;20569;-65
2022/04/06 05:30:11;;;;;;;9.87;4.30;;;7.90;99.90;;;;;;5073839;28;20203;-67
2022/04/06 05:32:37;;;;;;;6.70;3.57;;;7.90;99.90;;;;;;5084958;28;21005;-67
2022/04/06 05:35:03;;;;;;;5.40;3.70;;;7.90;99.90;;;;;;5076966;28;20538;-66
2022/04/06 05:37:29;;;;;;;5.63;3.40;;;7.90;99.90;;;;;;5078088;28;20189;-66
2022/04/06 05:39:54;;;;;;;8.90;3.80;;;7.90;99.90;;;;;;5079020;28;20786;-65
2022/04/06 05:42:20;;;;;;;6.47;3.70;;;7.90;99.90;;;;;;5076970;28;20204;-66
2022/04/06 05:44:45;;;;;;;7.40;4.00;;;7.90;99.90;;;;;;5085114;28;20246;-65
2022/04/06 05:47:13;;;;;;;9.93;4.33;;;7.90;99.90;;;;;;5082943;28;20654;-65
2022/04/06 05:49:39;;;;;;;5.20;3.40;;;8.00;99.90;;;;;;5075513;28;20687;-65
2022/04/06 05:52:04;;;;;;;7.70;3.90;;;7.90;99.90;;;;;;5076237;28;20451;-66
2022/04/06 05:54:30;;;;;;;6.80;3.97;;;8.00;99.90;;;;;;5074939;28;20273;-66
2022/04/06 05:56:55;;;;;;;6.63;3.90;;;8.00;99.90;;;;;;5071706;28;20200;-65
2022/04/06 05:59:21;;;;;;;4.97;3.00;;;8.00;99.90;;;;;;5074385;28;20657;-67
2022/04/06 06:01:47;;;;;;;7.87;4.27;;;8.00;99.90;;;;;;5073921;28;20200;-65
2022/04/06 06:04:12;;;;;;;4.57;3.57;;;8.00;99.90;;;;;;5076442;28;20581;-67
2022/04/06 06:06:38;;;;;;;10.63;4.40;;;8.00;99.90;;;;;;5077078;28;20507;-67
2022/04/06 06:09:04;;;;;;;7.40;4.23;;;8.00;99.90;;;;;;5073336;28;20189;-67
2022/04/06 06:11:29;;;;;;;4.83;2.83;;;8.00;99.90;;;;;;5077829;28;20712;-67
2022/04/06 06:13:55;;;;;;;6.70;3.40;;;8.10;99.90;;;;;;5079501;28;20195;-67
2022/04/06 06:16:20;;;;;;;8.87;3.90;;;8.10;99.90;;;;;;5078818;28;20199;-66
2022/04/06 06:18:46;;;;;;;5.80;3.30;;;8.20;99.90;;;;;;5052426;28;20189;-67
2022/04/06 06:21:12;;;;;;;9.23;4.30;;;8.20;99.90;;;;;;5070466;28;20232;-66
2022/04/06 06:23:37;;;;;;;7.00;3.57;;;8.10;99.90;;;;;;5075187;28;20245;-67
2022/04/06 06:26:03;;;;;;;6.40;3.63;;;8.20;99.90;;;;;;5072456;28;20211;-67
2022/04/06 06:28:30;;;;;;;6.67;3.50;;;8.20;99.90;;;;;;5074058;28;20667;-66
2022/04/06 06:30:55;;;;;;;9.27;3.87;;;8.20;99.90;;;;;;5074982;28;20193;-66
2022/04/06 06:33:21;;;;;;;8.87;4.47;;;8.20;99.90;;;;;;5071333;28;20877;-67
2022/04/06 06:35:46;;;;;;;6.70;3.70;;;8.30;99.90;;;;;;5072173;28;20189;-67
2022/04/06 06:38:12;;;;;;;10.13;3.97;;;8.30;99.90;;;;;;5055463;28;20288;-66
2022/04/06 06:40:38;;;;;;;5.30;2.73;;;8.30;99.90;;;;;;5074886;28;20184;-67
2022/04/06 06:43:04;;;;;;;9.57;3.70;;;8.30;99.90;;;;;;5073344;28;20401;-66
2022/04/06 06:45:29;;;;;;;7.80;3.50;;;8.30;99.90;;;;;;5071434;28;20215;-66
2022/04/06 06:47:55;;;;;;;5.40;3.30;;;8.30;99.90;;;;;;5063535;28;20208;-67
2022/04/06 06:50:21;;;;;;;6.10;3.50;;;8.30;99.90;;;;;;5073745;28;20184;-66
2022/04/06 06:52:47;;;;;;;5.87;3.57;;;8.30;99.90;;;;;;5076038;28;20204;-66
2022/04/06 06:55:12;;;;;;;5.60;2.57;;;8.30;99.90;;;;;;5072254;28;20200;-67
2022/04/06 06:57:38;;;;;;;3.97;2.43;;;8.30;99.90;;;;;;5073102;28;20181;-67
2022/04/06 07:00:05;;;;;;;5.83;2.70;;;8.40;99.90;;;;;;5077170;28;20290;-66
2022/04/06 07:02:31;;;;;;;4.77;2.43;;;8.40;99.90;;;;;;5076733;28;20235;-65
2022/04/06 07:04:56;;;;;;;4.17;2.47;;;8.40;99.90;;;;;;5076921;28;20511;-66
2022/04/06 07:07:22;;;;;;;3.80;2.20;;;8.50;99.90;;;;;;5080136;28;20991;-67
2022/04/06 07:09:48;;;;;;;5.47;3.00;;;8.50;99.90;;;;;;5078705;28;20180;-65
2022/04/06 07:12:13;;;;;;;6.30;2.80;;;8.50;99.90;;;;;;5067781;28;20200;-67
2022/04/06 07:14:39;;;;;;;4.80;2.40;;;8.50;99.90;;;;;;5068183;28;20199;-65
2022/04/06 07:17:05;;;;;;;3.63;2.30;;;8.60;99.90;;;;;;5071657;28;20238;-66
2022/04/06 07:19:30;;;;;;;3.37;1.97;;;8.60;99.90;;;;;;5076089;28;20959;-67
2022/04/06 07:21:56;;;;;;;4.57;2.50;;;8.60;99.90;;;;;;5084600;28;20216;-67
2022/04/06 07:24:22;;;;;;;4.43;2.33;;;8.70;99.90;;;;;;5074505;28;20228;-66
2022/04/06 07:26:48;;;;;;;5.67;2.57;;;8.70;99.90;;;;;;5075314;28;20696;-65
2022/04/06 07:29:15;;;;;;;6.73;2.73;;;8.80;99.90;;;;;;5073883;28;20437;-68
2022/04/06 07:31:43;;;;;;;4.53;2.17;;;8.70;99.90;;;;;;5083163;28;20979;-66
2022/04/06 07:34:10;;;;;;;6.27;3.47;;;8.80;99.90;;;;;;5073604;28;20803;-66
2022/04/06 07:36:35;;;;;;;4.03;2.37;;;8.80;99.90;;;;;;5077023;28;20537;-67
2022/04/06 07:39:04;;;;;;;5.10;2.50;;;8.90;99.90;;;;;;5079892;28;21032;-66
2022/04/06 07:41:31;;;;;;;2.93;2.00;;;9.00;99.90;;;;;;5079036;28;20450;-67
2022/04/06 07:43:58;;;;;;;4.67;2.27;;;9.00;99.90;;;;;;5074413;28;20798;-65
2022/04/06 07:46:24;;;;;;;4.23;2.20;;;9.10;99.90;;;;;;5074484;28;20455;-67
2022/04/06 07:48:50;;;;;;;3.80;2.30;;;9.20;99.90;;;;;;5076729;28;20421;-66
2022/04/06 07:51:16;;;;;;;5.70;2.70;;;9.20;99.90;;;;;;5077324;28;20261;-66
2022/04/06 07:53:42;;;;;;;4.03;2.33;;;9.30;99.90;;;;;;5074958;28;20204;-67
2022/04/06 07:56:08;;;;;;;4.30;2.17;;;9.30;99.90;;;;;;5076400;28;20934;-67
2022/04/06 07:58:34;;;;;;;5.53;3.03;;;9.40;99.90;;;;;;5078117;28;20658;-67
2022/04/06 08:01:02;;;;;;;5.80;2.83;;;9.40;99.90;;;;;;5075850;28;20245;-67
2022/04/06 08:03:31;;;;;;;4.43;1.80;;;9.50;99.90;;;;;;5076650;28;20976;-67
2022/04/06 08:05:57;;;;;;;3.97;2.17;;;9.60;99.90;;;;;;5078856;28;21035;-66
2022/04/06 08:08:23;;;;;;;5.93;1.73;;;9.60;99.90;;;;;;5070815;28;20557;-66
2022/04/06 08:10:48;;;;;;;4.37;1.43;;;9.60;99.90;;;;;;5075417;28;20656;-66
2022/04/06 08:13:14;;;;;;;2.60;1.20;;;9.70;99.90;;;;;;5074946;28;20230;-67
2022/04/06 08:15:40;;;;;;;4.10;1.63;;;9.80;99.90;;;;;;5075099;28;20701;-66
2022/04/06 08:18:06;;;;;;;2.80;1.27;;;9.80;99.90;;;;;;5074463;28;20408;-66
2022/04/06 08:20:33;;;;;;;5.67;2.17;;;9.90;99.90;;;;;;5076636;28;20215;-66
2022/04/06 08:22:59;;;;;;;8.43;1.70;;;9.90;99.90;;;;;;5075473;28;21046;-66
2022/04/06 08:25:25;;;;;;;3.40;1.33;;;10.00;99.90;;;;;;5074241;28;20552;-67
2022/04/06 08:27:51;;;;;;;4.27;1.67;;;10.10;99.90;;;;;;5075620;28;20506;-66
2022/04/06 08:30:19;;;;;;;2.87;1.33;;;10.10;99.90;;;;;;5074298;28;20419;-67
2022/04/06 08:32:45;;;;;;;2.80;1.10;;;10.20;99.90;;;;;;5075967;28;20268;-65
2022/04/06 08:35:12;;;;;;;5.00;1.63;;;10.40;99.90;;;;;;5075375;28;20415;-67
2022/04/06 08:37:39;;;;;;;3.53;1.50;;;10.50;99.90;;;;;;5076841;28;20187;-66
2022/04/06 08:40:12;;;;;;;3.87;1.67;;;10.70;99.90;;;;;;5074913;28;20449;-66
2022/04/06 08:42:38;;;;;;;2.70;1.43;;;11.10;99.90;;;;;;5074555;28;20938;-68
2022/04/06 08:45:05;;;;;;;4.43;0.97;;;12.00;99.90;;;;;;5075248;28;20419;-68
2022/04/06 08:47:32;;;;;;;1.30;0.63;;;12.60;99.90;;;;;;5076444;28;20425;-68
2022/04/06 08:49:59;;;;;;;3.00;1.20;;;13.10;98.40;;;;;;5072564;28;20429;-67
2022/04/06 08:52:25;;;;;;;3.13;1.50;;;13.10;97.60;;;;;;5064567;28;20547;-67
2022/04/06 08:54:50;;;;;;;3.63;1.60;;;12.90;97.80;;;;;;5079115;28;20523;-69
2022/04/06 08:57:19;;;;;;;7.33;1.13;;;12.20;98.70;;;;;;5081343;28;20216;-68
2022/04/06 08:59:49;;;;;;;5.00;1.63;;;12.10;99.50;;;;;;5078861;28;20181;-68
2022/04/06 09:02:22;;;;;;;4.63;1.60;;;12.30;99.40;;;;;;5067525;28;20533;-68
2022/04/06 09:04:52;;;;;;;3.27;1.30;;;12.30;99.30;;;;;;5079655;28;20910;-68
2022/04/06 09:07:23;;;;;;;3.60;1.93;;;12.40;99.10;;;;;;5072882;28;20498;-67
2022/04/06 09:09:50;;;;;;;2.53;0.90;;;12.60;98.70;;;;;;5071039;28;20911;-68
2022/04/06 09:12:19;;;;;;;1.47;0.77;;;12.70;98.30;;;;;;5074678;28;20640;-67
2022/04/06 09:14:45;;;;;;;3.10;1.10;;;13.00;97.40;;;;;;5077057;28;20415;-68
2022/04/06 09:17:11;;;;;;;3.33;1.10;;;13.00;97.80;;;;;;5078436;28;20445;-68
2022/04/06 09:19:47;;;;;;;1.83;0.90;;;13.50;96.80;;;;;;5075324;28;20866;-68
2022/04/06 09:22:13;;;;;;;1.50;0.70;;;13.50;95.70;;;;;;5080531;28;20257;-68
2022/04/06 09:24:38;;;;;;;3.43;0.80;;;13.70;95.20;;;;;;5075703;28;20423;-68
2022/04/06 09:27:05;;;;;;;1.50;0.67;;;13.60;95.60;;;;;;5075026;28;20719;-67
2022/04/06 09:29:31;;;;;;;1.50;0.70;;;13.10;95.70;;;;;;5073984;28;20187;-67
2022/04/06 09:32:08;;;;;;;1.70;0.60;;;13.50;94.90;;;;;;5077108;28;20442;-68
2022/04/06 09:34:34;;;;;;;1.83;0.80;;;13.30;95.20;;;;;;5073563;28;20505;-68
2022/04/06 09:37:23;;;;;;;1.40;0.60;;;13.30;94.50;;;;;;5074650;28;21132;-67
2022/04/06 09:39:49;;;;;;;1.60;0.80;;;12.90;94.70;;;;;;5075250;28;20667;-67
2022/04/06 09:42:21;;;;;;;1.83;0.70;;;12.80;95.20;;;;;;5058254;28;20451;-67
2022/04/06 09:47:38;;;;;;;1.20;0.50;;;12.70;96.40;;;;;;5077742;28;20779;-68
2022/04/06 09:50:30;;;;;;;1.40;0.60;;;13.00;94.80;;;;;;5075241;28;20509;-67
2022/04/06 09:52:57;;;;;;;3.93;0.63;;;13.10;94.20;;;;;;5068830;28;20442;-67
2022/04/06 09:55:23;;;;;;;1.30;0.50;;;13.00;94.80;;;;;;5070595;28;20518;-66
2022/04/06 09:57:51;;;;;;;2.60;0.73;;;13.00;94.60;;;;;;5075651;28;20422;-66
2022/04/06 10:00:20;;;;;;;3.03;0.97;;;13.00;94.50;;;;;;5059913;28;21052;-67
2022/04/06 10:02:59;;;;;;;1.40;0.70;;;12.80;95.00;;;;;;5076329;28;20558;-66
2022/04/06 10:05:27;;;;;;;1.30;0.60;;;12.80;94.00;;;;;;5078801;28;20470;-67
2022/04/06 10:07:53;;;;;;;1.80;0.77;;;12.60;94.80;;;;;;5061661;28;20758;-67
2022/04/06 10:10:23;;;;;;;1.70;0.70;;;12.50;94.90;;;;;;5075876;28;21045;-68
2022/04/06 10:12:50;;;;;;;1.57;0.70;;;12.40;94.90;;;;;;5073552;28;20444;-66
2022/04/06 10:15:17;;;;;;;1.30;0.60;;;12.50;95.30;;;;;;5077635;28;20426;-68
2022/04/06 10:17:43;;;;;;;1.50;0.70;;;12.60;94.80;;;;;;5079890;28;20455;-68
2022/04/06 10:20:11;;;;;;;1.50;0.57;;;12.90;94.60;;;;;;5075678;28;20462;-69
2022/04/06 10:22:46;;;;;;;1.73;0.70;;;12.90;94.70;;;;;;5074633;28;20710;-67
2022/04/06 10:25:26;;;;;;;1.40;0.70;;;13.00;94.20;;;;;;5075582;28;21175;-66
2022/04/06 10:27:56;;;;;;;1.30;0.60;;;12.90;94.20;;;;;;5073057;28;20431;-67
2022/04/06 10:30:23;;;;;;;2.23;0.60;;;12.90;93.60;;;;;;5072717;28;20422;-67
2022/04/06 10:32:53;;;;;;;1.30;0.63;;;12.80;94.00;;;;;;5078902;28;20442;-65
2022/04/06 10:35:35;;;;;;;1.50;0.50;;;12.60;94.60;;;;;;5068914;28;20422;-66
2022/04/06 10:38:04;;;;;;;1.40;0.70;;;12.40;94.80;;;;;;5075195;28;20422;-67
2022/04/06 10:40:59;;;;;;;1.33;0.50;;;12.70;95.00;;;;;;5077653;28;20456;-67
2022/04/06 10:43:39;;;;;;;1.50;0.70;;;13.00;93.90;;;;;;5063179;28;20450;-67
2022/04/06 10:46:16;;;;;;;1.30;0.57;;;12.90;93.30;;;;;;5074816;28;21061;-66
2022/04/06 10:49:07;;;;;;;1.40;0.60;;;12.80;93.60;;;;;;5080277;28;20426;-66
2022/04/06 10:51:37;;;;;;;4.40;0.70;;;12.70;93.20;;;;;;5071708;28;20477;-66
2022/04/06 10:54:12;;;;;;;1.60;0.60;;;13.00;92.70;;;;;;5076335;28;20454;-67
2022/04/06 10:56:49;;;;;;;1.40;0.70;;;13.10;92.90;;;;;;5080113;28;20422;-67
2022/04/06 10:59:23;;;;;;;1.40;0.50;;;13.50;93.00;;;;;;5073697;28;20894;-67
2022/04/06 11:02:09;;;;;;;1.70;0.60;;;13.60;91.50;;;;;;5072577;28;20443;-67
2022/04/06 11:04:40;;;;;;;1.87;0.80;;;13.50;92.30;;;;;;5075359;28;20450;-68
2022/04/06 11:07:05;;;;;;;1.50;0.60;;;13.90;91.90;;;;;;5076508;28;20462;-67
2022/04/06 11:12:32;;;;;;;1.40;0.67;;;14.10;91.10;;;;;;5080061;28;20210;-69
2022/04/06 11:14:58;;;;;;;1.93;0.80;;;13.90;91.10;;;;;;5076417;28;20433;-66
2022/04/06 11:20:17;;;;;;;1.40;0.60;;;13.60;91.20;;;;;;5071830;28;20227;-67
2022/04/06 11:22:53;;;;;;;1.97;0.67;;;13.70;91.00;;;;;;5072918;28;20820;-67
2022/04/06 11:25:22;;;;;;;2.17;0.87;;;13.60;91.10;;;;;;5072061;28;20433;-67
2022/04/06 11:27:48;;;;;;;1.27;0.50;;;13.70;92.50;;;;;;5072880;28;20909;-67
2022/04/06 11:30:13;;;;;;;1.70;0.73;;;14.00;91.80;;;;;;5069023;28;20435;-68
2022/04/06 11:32:49;;;;;;;1.97;0.90;;;14.30;92.30;;;;;;5074440;28;20517;-68
2022/04/06 11:35:16;;;;;;;1.43;0.60;;;14.60;91.00;;;;;;5063680;28;20176;-67
2022/04/06 11:37:51;;;;;;;1.27;0.50;;;14.60;91.10;;;;;;5084103;28;20644;-67
2022/04/06 11:40:18;;;;;;;1.43;0.73;;;14.70;90.20;;;;;;5078123;28;20430;-67
2022/04/06 11:42:52;;;;;;;1.50;0.67;;;14.50;90.60;;;;;;5076660;28;20465;-67
2022/04/06 11:45:26;;;;;;;3.67;0.60;;;14.70;90.60;;;;;;5079094;28;20415;-68
2022/04/06 11:47:57;;;;;;;1.30;0.57;;;15.10;91.30;;;;;;5072704;28;21270;-67
2022/04/06 11:50:28;;;;;;;1.73;0.67;;;15.40;89.50;;;;;;5083607;28;20482;-68
2022/04/06 11:52:54;;;;;;;1.40;0.50;;;15.20;86.90;;;;;;5072673;28;20451;-67
2022/04/06 11:55:20;;;;;;;1.70;0.60;;;15.40;87.10;;;;;;5069459;28;20987;-67
2022/04/06 11:57:46;;;;;;;1.50;0.53;;;15.70;88.20;;;;;;5071829;28;20184;-66
2022/04/06 12:00:13;;;;;;;1.87;0.70;;;15.90;84.90;;;;;;5067907;28;20267;-67
2022/04/06 12:02:55;;;;;;;1.37;0.53;;;16.00;87.60;;;;;;5081701;28;20251;-67
2022/04/06 12:05:24;;;;;;;1.33;0.70;;;16.40;86.20;;;;;;5074181;28;20507;-67
2022/04/06 12:08:13;;;;;;;1.70;0.70;;;16.50;86.10;;;;;;5068613;28;20423;-67
2022/04/06 12:10:49;;;;;;;1.70;0.90;;;16.40;84.00;;;;;;5073664;28;20424;-66
2022/04/06 12:13:15;;;;;;;1.77;0.70;;;16.40;80.60;;;;;;5075309;28;20969;-65
2022/04/06 12:15:42;;;;;;;1.80;0.70;;;16.10;82.70;;;;;;5076941;28;20542;-66
2022/04/06 12:18:08;;;;;;;2.77;0.60;;;16.00;85.60;;;;;;5070063;28;20437;-69
2022/04/06 12:20:34;;;;;;;4.40;0.70;;;16.40;85.20;;;;;;5067875;28;20458;-67
2022/04/06 12:23:08;;;;;;;3.00;0.60;;;16.50;83.30;;;;;;5082947;28;20423;-68
2022/04/06 12:25:35;;;;;;;1.60;0.70;;;16.10;83.30;;;;;;5069821;28;20467;-67
2022/04/06 12:28:14;;;;;;;1.50;0.50;;;16.40;83.30;;;;;;5071963;28;20886;-66
2022/04/06 12:30:53;;;;;;;1.67;0.70;;;16.50;80.50;;;;;;5073683;28;20850;-67
2022/04/06 12:33:42;;;;;;;1.47;0.63;;;16.70;83.50;;;;;;5079809;28;20414;-67
2022/04/06 12:36:17;;;;;;;1.93;0.90;;;17.00;78.90;;;;;;5079441;28;20876;-67
2022/04/06 12:39:02;;;;;;;1.80;0.60;;;17.10;81.50;;;;;;5079156;28;20411;-67
2022/04/06 12:41:30;;;;;;;1.70;0.60;;;17.20;79.70;;;;;;5079132;28;20442;-66
2022/04/06 12:43:58;;;;;;;2.00;0.80;;;17.10;79.70;;;;;;5074251;28;20557;-68
2022/04/06 12:46:44;;;;;;;1.70;0.60;;;17.10;79.30;;;;;;5068409;28;20843;-67
2022/04/06 12:49:35;;;;;;;1.53;0.57;;;16.70;78.80;;;;;;5080343;28;20520;-67
2022/04/06 12:52:13;;;;;;;1.50;0.60;;;16.30;83.80;;;;;;5080141;28;20443;-67
2022/04/06 12:54:41;;;;;;;1.50;0.60;;;16.70;82.30;;;;;;5067929;28;20838;-68
2022/04/06 12:57:07;;;;;;;1.63;0.80;;;17.00;82.80;;;;;;5080561;28;20481;-66
2022/04/06 12:59:45;;;;;;;3.00;0.50;;;17.20;81.30;;;;;;5065781;28;21079;-66
2022/04/06 13:02:37;;;;;;;1.77;0.50;;;16.90;80.90;;;;;;5066934;28;20802;-66
2022/04/06 13:05:10;;;;;;;2.27;0.90;;;16.50;81.10;;;;;;5072459;28;20443;-67
2022/04/06 13:07:40;;;;;;;2.37;0.73;;;16.10;81.00;;;;;;5068484;28;20475;-67